createdAt,value
2022-10-11T00:00:50.851Z,988.602
2022-10-11T00:02:50.134Z,988.599
2022-10-11T00:04:50.731Z,988.505
2022-10-11T00:06:50.198Z,988.523
2022-10-11T00:08:50.274Z,988.540
2022-10-11T00:10:50.484Z,988.559
2022-10-11T00:12:50.675Z,988.592
2022-10-11T00:14:50.668Z,988.742
2022-10-11T00:16:50.306Z,988.727
2022-10-11T00:18:50.464Z,988.765
2022-10-11T00:20:50.534Z,988.716
2022-10-11T00:22:50.642Z,988.699
2022-10-11T00:24:50.833Z,988.722
2022-10-11T00:26:50.243Z,988.780
2022-10-11T00:28:50.650Z,988.796
2022-10-11T00:30:50.301Z,988.796
2022-10-11T00:32:50.688Z,988.786
2022-10-11T00:34:50.521Z,988.758
2022-10-11T00:36:50.274Z,988.761
2022-10-11T00:38:50.488Z,988.737
2022-10-11T00:40:50.812Z,988.744
2022-10-11T00:42:50.035Z,988.725
2022-10-11T00:44:50.481Z,988.676
2022-10-11T00:46:56.190Z,988.746
2022-10-11T00:48:50.290Z,988.729
2022-10-11T00:50:50.528Z,988.682
2022-10-11T00:52:50.504Z,988.728
2022-10-11T00:54:49.858Z,988.770
2022-10-11T00:56:50.520Z,988.823
2022-10-11T00:58:50.427Z,988.792
2022-10-11T01:00:50.447Z,988.820
2022-10-11T01:02:50.797Z,988.894
2022-10-11T01:05:28.435Z,988.855
2022-10-11T01:06:50.343Z,988.821
2022-10-11T01:08:50.509Z,988.844
2022-10-11T01:10:50.739Z,988.858
2022-10-11T01:12:49.828Z,988.855
2022-10-11T01:14:50.006Z,988.894
2022-10-11T01:16:50.480Z,988.886
2022-10-11T01:18:50.405Z,988.945
2022-10-11T01:20:50.531Z,988.954
2022-10-11T01:22:49.899Z,988.952
2022-10-11T01:24:49.929Z,988.974
2022-10-11T01:26:50.291Z,988.936
2022-10-11T01:28:50.763Z,988.966
2022-10-11T01:30:49.942Z,988.973
2022-10-11T01:32:49.924Z,988.964
2022-10-11T01:34:50.495Z,988.962
2022-10-11T01:36:50.133Z,988.925
2022-10-11T01:38:50.071Z,988.991
2022-10-11T01:40:50.280Z,989.013
2022-10-11T01:42:49.817Z,989.034
2022-10-11T01:44:49.805Z,989.030
2022-10-11T01:46:50.333Z,989.031
2022-10-11T01:48:50.476Z,989.054
2022-10-11T01:50:50.417Z,989.034
2022-10-11T01:52:50.398Z,989.054
2022-10-11T01:55:10.712Z,989.067
2022-10-11T01:56:50.391Z,989.071
2022-10-11T01:58:50.596Z,989.105
2022-10-11T02:00:50.658Z,989.119
2022-10-11T02:02:50.670Z,989.136
2022-10-11T02:04:50.158Z,989.131
2022-10-11T02:06:49.863Z,989.151
2022-10-11T02:08:50.408Z,989.180
2022-10-11T02:10:50.389Z,989.190
2022-10-11T02:12:50.318Z,989.203
2022-10-11T02:14:50.469Z,989.240
2022-10-11T02:16:49.890Z,989.257
2022-10-11T02:18:49.986Z,989.277
2022-10-11T02:20:49.965Z,989.279
2022-10-11T02:22:50.042Z,989.236
2022-10-11T02:24:49.811Z,989.265
2022-10-11T02:26:50.151Z,989.239
2022-10-11T02:28:50.348Z,989.281
2022-10-11T02:30:50.686Z,989.248
2022-10-11T02:32:49.943Z,989.263
2022-10-11T02:34:50.637Z,989.259
2022-10-11T02:36:50.182Z,989.259
2022-10-11T02:38:50.350Z,989.258
2022-10-11T02:40:50.579Z,989.263
2022-10-11T02:42:50.727Z,989.262
2022-10-11T02:44:50.048Z,989.215
2022-10-11T02:46:50.543Z,989.189
2022-10-11T02:48:50.417Z,989.184
2022-10-11T02:50:49.789Z,989.164
2022-10-11T02:52:49.965Z,989.118
2022-10-11T02:54:50.786Z,989.116
2022-10-11T02:56:50.120Z,989.164
2022-10-11T02:58:50.189Z,989.146
2022-10-11T03:00:50.084Z,989.161
2022-10-11T03:02:50.376Z,989.188
2022-10-11T03:04:49.997Z,989.176
2022-10-11T03:06:50.334Z,989.195
2022-10-11T03:08:50.623Z,989.188
2022-10-11T03:10:50.781Z,989.204
2022-10-11T03:12:50.694Z,989.195
2022-10-11T03:14:49.858Z,989.286
2022-10-11T03:16:51.853Z,989.344
2022-10-11T03:18:49.825Z,989.344
2022-10-11T03:20:49.934Z,989.378
2022-10-11T03:22:50.056Z,989.481
2022-10-11T03:24:50.091Z,989.464
2022-10-11T03:26:50.604Z,989.564
2022-10-11T03:28:50.856Z,989.593
2022-10-11T03:30:49.957Z,989.637
2022-10-11T03:32:49.993Z,989.655
2022-10-11T03:34:50.638Z,989.681
2022-10-11T03:36:50.018Z,989.712
2022-10-11T03:38:50.084Z,989.698
2022-10-11T03:40:50.279Z,989.705
2022-10-11T03:42:50.226Z,989.732
2022-10-11T03:44:50.289Z,989.702
2022-10-11T03:46:50.722Z,989.734
2022-10-11T03:48:49.836Z,989.745
2022-10-11T03:50:50.022Z,989.780
2022-10-11T03:52:50.362Z,989.787
2022-10-11T03:54:50.430Z,989.808
2022-10-11T03:56:50.782Z,989.811
2022-10-11T03:58:49.996Z,989.856
2022-10-11T04:00:49.983Z,989.847
2022-10-11T04:02:49.944Z,989.869
2022-10-11T04:04:50.641Z,989.884
2022-10-11T04:06:50.043Z,989.876
2022-10-11T04:08:50.035Z,989.882
2022-10-11T04:10:50.437Z,989.891
2022-10-11T04:12:50.523Z,989.912
2022-10-11T04:14:50.691Z,989.912
2022-10-11T04:16:50.130Z,989.982
2022-10-11T04:18:50.342Z,989.963
2022-10-11T04:20:50.466Z,989.962
2022-10-11T04:22:50.690Z,989.974
2022-10-11T04:24:49.808Z,989.944
2022-10-11T04:26:50.137Z,989.920
2022-10-11T04:28:50.485Z,989.909
2022-10-11T04:30:50.600Z,989.909
2022-10-11T04:32:50.542Z,989.929
2022-10-11T04:34:50.146Z,989.955
2022-10-11T04:36:50.816Z,989.987
2022-10-11T04:38:50.786Z,989.948
2022-10-11T04:40:49.956Z,989.941
2022-10-11T04:42:50.162Z,989.929
2022-10-11T04:44:50.215Z,989.957
2022-10-11T04:46:50.654Z,989.944
2022-10-11T04:48:50.621Z,989.977
2022-10-11T04:50:50.539Z,989.988
2022-10-11T04:52:50.697Z,989.996
2022-10-11T04:54:49.868Z,990.015
2022-10-11T04:56:50.282Z,990.051
2022-10-11T04:58:50.269Z,990.079
2022-10-11T05:00:50.472Z,990.047
2022-10-11T05:02:50.508Z,990.074
2022-10-11T05:04:50.255Z,990.096
2022-10-11T05:06:50.742Z,990.150
2022-10-11T05:08:49.841Z,990.147
2022-10-11T05:10:50.018Z,990.138
2022-10-11T05:12:50.166Z,990.191
2022-10-11T05:14:50.292Z,990.195
2022-10-11T05:16:50.798Z,990.232
2022-10-11T05:18:49.955Z,990.239
2022-10-11T05:20:50.091Z,990.269
2022-10-11T05:22:50.169Z,990.276
2022-10-11T05:24:50.013Z,990.302
2022-10-11T05:26:50.280Z,990.275
2022-10-11T05:28:50.902Z,990.260
2022-10-11T05:30:50.207Z,990.247
2022-10-11T05:32:50.135Z,990.282
2022-10-11T05:34:50.757Z,990.281
2022-10-11T05:36:50.400Z,990.304
2022-10-11T05:38:50.550Z,990.314
2022-10-11T05:40:50.626Z,990.390
2022-10-11T05:42:49.882Z,990.469
2022-10-11T05:44:50.067Z,990.525
2022-10-11T05:46:50.409Z,990.531
2022-10-11T05:48:50.488Z,990.564
2022-10-11T05:50:50.658Z,990.566
2022-10-11T05:52:50.723Z,990.580
2022-10-11T05:54:50.705Z,990.598
2022-10-11T05:56:49.882Z,990.601
2022-10-11T05:58:50.031Z,990.641
2022-10-11T06:00:50.526Z,990.655
2022-10-11T06:02:49.864Z,990.682
2022-10-11T06:04:50.733Z,990.679
2022-10-11T06:06:50.465Z,990.749
2022-10-11T06:08:50.538Z,990.739
2022-10-11T06:10:50.502Z,990.827
2022-10-11T06:12:50.621Z,990.841
2022-10-11T06:14:49.861Z,990.894
2022-10-11T06:16:50.345Z,990.884
2022-10-11T06:18:50.515Z,990.857
2022-10-11T06:20:50.759Z,990.892
2022-10-11T06:22:49.968Z,990.903
2022-10-11T06:24:50.269Z,990.977
2022-10-11T06:26:50.828Z,990.950
2022-10-11T06:28:50.273Z,991.000
2022-10-11T06:30:49.888Z,991.023
2022-10-11T06:32:50.080Z,991.071
2022-10-11T06:34:50.728Z,991.106
2022-10-11T06:36:50.117Z,991.127
2022-10-11T06:38:50.251Z,991.140
2022-10-11T06:40:50.124Z,991.180
2022-10-11T06:42:50.071Z,991.171
2022-10-11T06:44:50.392Z,991.235
2022-10-11T06:46:50.138Z,991.237
2022-10-11T06:48:49.998Z,991.305
2022-10-11T06:51:00.921Z,991.298
2022-10-11T06:52:50.373Z,991.389
2022-10-11T06:54:50.438Z,991.441
2022-10-11T06:56:50.875Z,991.452
2022-10-11T06:58:49.918Z,991.446
2022-10-11T07:00:50.131Z,991.463
2022-10-11T07:02:50.370Z,991.515
2022-10-11T07:04:49.809Z,991.515
2022-10-11T07:06:50.145Z,991.556
2022-10-11T07:08:50.351Z,991.546
2022-10-11T07:10:50.450Z,991.606
2022-10-11T07:12:50.457Z,991.648
2022-10-11T07:14:50.682Z,991.706
2022-10-11T07:16:50.384Z,991.685
2022-10-11T07:18:50.350Z,991.702
2022-10-11T07:20:50.421Z,991.711
2022-10-11T07:22:50.440Z,991.737
2022-10-11T07:24:50.339Z,991.795
2022-10-11T07:26:50.178Z,991.786
2022-10-11T07:28:50.660Z,991.807
2022-10-11T07:30:49.812Z,991.855
2022-10-11T07:32:50.797Z,991.871
2022-10-11T07:34:50.404Z,991.862
2022-10-11T07:36:49.876Z,991.893
2022-10-11T07:38:49.914Z,991.887
2022-10-11T07:40:50.181Z,991.928
2022-10-11T07:42:50.210Z,991.933
2022-10-11T07:44:50.415Z,991.937
2022-10-11T07:46:49.883Z,991.927
2022-10-11T07:48:49.942Z,991.928
2022-10-11T07:50:49.991Z,991.966
2022-10-11T07:52:50.380Z,991.913
2022-10-11T07:54:50.456Z,991.950
2022-10-11T07:56:50.749Z,991.955
2022-10-11T07:58:50.037Z,991.948
2022-10-11T08:00:50.164Z,991.987
2022-10-11T08:02:50.429Z,991.995
2022-10-11T08:04:50.167Z,992.007
2022-10-11T08:06:53.860Z,991.992
2022-10-11T08:08:49.885Z,992.005
2022-10-11T08:10:50.294Z,991.993
2022-10-11T08:12:50.166Z,992.002
2022-10-11T08:14:50.129Z,991.961
2022-10-11T08:16:50.558Z,991.997
2022-10-11T08:18:50.805Z,992.029
2022-10-11T08:20:50.003Z,992.006
2022-10-11T08:22:50.191Z,992.013
2022-10-11T08:24:50.492Z,992.062
2022-10-11T08:26:50.720Z,992.040
2022-10-11T08:28:50.389Z,992.084
2022-10-11T08:30:49.833Z,992.090
2022-10-11T08:32:50.838Z,992.051
2022-10-11T08:34:50.124Z,992.083
2022-10-11T08:36:50.727Z,992.067
2022-10-11T08:38:49.949Z,992.089
2022-10-11T08:40:50.008Z,992.087
2022-10-11T08:42:50.125Z,992.038
2022-10-11T08:45:11.679Z,992.021
2022-10-11T08:46:50.577Z,992.026
2022-10-11T08:48:50.623Z,992.030
2022-10-11T08:50:49.842Z,992.020
2022-10-11T08:52:50.758Z,992.050
2022-10-11T08:54:50.418Z,992.066
2022-10-11T08:56:49.866Z,992.080
2022-10-11T08:58:49.849Z,992.115
2022-10-11T09:00:50.072Z,992.122
2022-10-11T09:03:09.461Z,992.123
2022-10-11T09:04:50.481Z,992.108
2022-10-11T09:06:49.910Z,992.078
2022-10-11T09:08:50.098Z,992.025
2022-10-11T09:10:50.111Z,992.116
2022-10-11T09:12:50.083Z,992.120
2022-10-11T09:14:50.217Z,992.098
2022-10-11T09:16:50.701Z,992.086
2022-10-11T09:18:50.790Z,992.093
2022-10-11T09:20:50.734Z,992.088
2022-10-11T09:22:50.632Z,992.106
2022-10-11T09:24:50.682Z,992.112
2022-10-11T09:26:50.125Z,992.075
2022-10-11T09:28:50.587Z,992.068
2022-10-11T09:30:49.995Z,992.063
2022-10-11T09:32:50.180Z,992.085
2022-10-11T09:34:49.956Z,992.083
2022-10-11T09:36:50.505Z,992.072
2022-10-11T09:38:50.732Z,992.088
2022-10-11T09:40:50.830Z,992.070
2022-10-11T09:42:49.966Z,992.064
2022-10-11T09:44:50.115Z,992.061
2022-10-11T09:46:50.665Z,992.115
2022-10-11T09:48:50.818Z,992.119
2022-10-11T09:50:50.073Z,992.084
2022-10-11T09:52:50.052Z,992.093
2022-10-11T09:54:50.314Z,992.151
2022-10-11T09:56:49.901Z,992.106
2022-10-11T09:58:50.115Z,992.107
2022-10-11T10:00:50.399Z,992.141
2022-10-11T10:02:50.449Z,992.111
2022-10-11T10:04:50.117Z,992.067
2022-10-11T10:06:50.628Z,992.149
2022-10-11T10:08:50.720Z,992.098
2022-10-11T10:10:50.711Z,992.088
2022-10-11T10:12:49.920Z,992.107
2022-10-11T10:14:49.961Z,992.151
2022-10-11T10:16:50.450Z,992.140
2022-10-11T10:18:50.404Z,992.127
2022-10-11T10:20:50.630Z,992.121
2022-10-11T10:22:49.802Z,992.135
2022-10-11T10:24:50.620Z,992.108
2022-10-11T10:26:49.862Z,992.164
2022-10-11T10:28:50.727Z,992.176
2022-10-11T10:30:49.978Z,992.159
2022-10-11T10:32:50.052Z,992.139
2022-10-11T10:34:50.681Z,992.139
2022-10-11T10:36:49.905Z,992.199
2022-10-11T10:38:52.683Z,992.187
2022-10-11T10:40:49.857Z,992.177
2022-10-11T10:42:49.949Z,992.169
2022-10-11T10:44:49.939Z,992.188
2022-10-11T10:46:50.290Z,992.193
2022-10-11T10:50:50.368Z,992.136
2022-10-11T10:52:50.471Z,992.159
2022-10-11T10:54:50.546Z,992.203
2022-10-11T10:56:50.062Z,992.214
2022-10-11T10:58:50.472Z,992.155
2022-10-11T11:00:50.762Z,992.180
2022-10-11T11:02:51.005Z,992.127
2022-10-11T11:04:50.097Z,992.129
2022-10-11T11:06:50.826Z,992.078
2022-10-11T11:08:49.938Z,992.078
2022-10-11T11:10:49.985Z,992.105
2022-10-11T11:12:50.206Z,992.069
2022-10-11T11:14:50.306Z,992.117
2022-10-11T11:16:50.703Z,992.053
2022-10-11T11:18:50.774Z,992.039
2022-10-11T11:20:50.732Z,992.034
2022-10-11T11:22:50.793Z,992.015
2022-10-11T11:24:49.811Z,992.034
2022-10-11T11:26:50.334Z,992.074
2022-10-11T11:28:50.684Z,992.056
2022-10-11T11:30:50.017Z,992.031
2022-10-11T11:32:49.958Z,991.976
2022-10-11T11:34:50.496Z,991.971
2022-10-11T11:36:49.899Z,991.934
2022-10-11T11:38:49.985Z,991.978
2022-10-11T11:40:49.987Z,991.967
2022-10-11T11:42:50.101Z,991.932
2022-10-11T11:44:50.007Z,991.924
2022-10-11T11:46:50.305Z,991.975
2022-10-11T11:48:50.373Z,991.955
2022-10-11T11:50:50.341Z,991.969
2022-10-11T11:52:50.471Z,991.940
2022-10-11T11:54:50.549Z,991.931
2022-10-11T11:56:49.837Z,991.896
2022-10-11T11:58:50.058Z,991.903
2022-10-11T12:00:50.315Z,991.921
2022-10-11T12:02:50.391Z,991.884
2022-10-11T12:04:50.142Z,991.827
2022-10-11T12:07:16.191Z,991.862
2022-10-11T12:08:49.863Z,991.848
2022-10-11T12:10:49.921Z,991.845
2022-10-11T12:12:50.005Z,991.865
2022-10-11T12:14:50.033Z,991.846
2022-10-11T12:16:50.291Z,991.835
2022-10-11T12:18:50.549Z,991.833
2022-10-11T12:20:50.460Z,991.823
2022-10-11T12:22:50.549Z,991.814
2022-10-11T12:24:50.772Z,991.781
2022-10-11T12:26:50.227Z,991.795
2022-10-11T12:28:50.600Z,991.771
2022-10-11T12:30:50.054Z,991.790
2022-10-11T12:32:49.978Z,991.750
2022-10-11T12:34:50.636Z,991.695
2022-10-11T12:36:49.913Z,991.753
2022-10-11T12:38:49.921Z,991.757
2022-10-11T12:40:49.845Z,991.774
2022-10-11T12:42:49.882Z,991.782
2022-10-11T12:44:49.863Z,991.750
2022-10-11T12:46:50.337Z,991.799
2022-10-11T12:48:50.552Z,991.747
2022-10-11T12:50:50.603Z,991.744
2022-10-11T12:52:50.602Z,991.726
2022-10-11T12:54:50.595Z,991.679
2022-10-11T12:56:49.888Z,991.712
2022-10-11T12:58:49.972Z,991.678
2022-10-11T13:00:50.449Z,991.656
2022-10-11T13:02:50.806Z,991.645
2022-10-11T13:04:50.673Z,991.635
2022-10-11T13:06:50.318Z,991.589
2022-10-11T13:08:50.476Z,991.611
2022-10-11T13:10:50.383Z,991.584
2022-10-11T13:12:50.496Z,991.602
2022-10-11T13:14:50.710Z,991.579
2022-10-11T13:16:50.145Z,991.605
2022-10-11T13:18:50.173Z,991.601
2022-10-11T13:20:50.259Z,991.559
2022-10-11T13:22:50.352Z,991.559
2022-10-11T13:24:50.525Z,991.570
2022-10-11T13:26:49.858Z,991.600
2022-10-11T13:28:50.257Z,991.589
2022-10-11T13:30:50.517Z,991.567
2022-10-11T13:32:50.566Z,991.545
2022-10-11T13:34:50.621Z,991.580
2022-10-11T13:36:50.134Z,991.583
2022-10-11T13:38:50.263Z,991.577
2022-10-11T13:40:51.597Z,991.605
2022-10-11T13:42:50.540Z,991.590
2022-10-11T13:44:50.631Z,991.566
2022-10-11T13:46:49.889Z,991.530
2022-10-11T13:48:49.936Z,991.512
2022-10-11T13:50:50.043Z,991.486
2022-10-11T13:52:50.149Z,991.522
2022-10-11T13:54:50.398Z,991.481
2022-10-11T13:56:50.103Z,991.475
2022-10-11T13:58:50.253Z,991.394
2022-10-11T14:00:50.261Z,991.384
2022-10-11T14:02:50.187Z,991.355
2022-10-11T14:04:50.793Z,991.354
2022-10-11T14:06:50.181Z,991.378
2022-10-11T14:08:50.109Z,991.365
2022-10-11T14:11:01.376Z,991.353
2022-10-11T14:12:50.661Z,991.379
2022-10-11T14:14:50.711Z,991.391
2022-10-11T14:16:50.263Z,991.360
2022-10-11T14:18:50.594Z,991.347
2022-10-11T14:20:50.646Z,991.384
2022-10-11T14:22:50.769Z,991.344
2022-10-11T14:24:49.821Z,991.333
2022-10-11T14:26:50.321Z,991.345
2022-10-11T14:28:50.430Z,991.369
2022-10-11T14:30:50.855Z,991.353
2022-10-11T14:32:50.185Z,991.369
2022-10-11T14:34:50.755Z,991.392
2022-10-11T14:36:50.178Z,991.330
2022-10-11T14:38:50.327Z,991.342
2022-10-11T14:40:50.265Z,991.343
2022-10-11T14:42:50.224Z,991.383
2022-10-11T14:44:50.277Z,991.379
2022-10-11T14:46:50.650Z,991.312
2022-10-11T14:48:57.000Z,991.330
2022-10-11T14:50:50.305Z,991.359
2022-10-11T14:52:50.321Z,991.354
2022-10-11T14:54:50.446Z,991.388
2022-10-11T14:56:50.021Z,991.379
2022-10-11T14:58:50.027Z,991.394
2022-10-11T15:00:49.931Z,991.385
2022-10-11T15:02:50.096Z,991.407
2022-10-11T15:04:49.847Z,991.425
2022-10-11T15:06:50.257Z,991.415
2022-10-11T15:08:50.398Z,991.443
2022-10-11T15:10:50.514Z,991.451
2022-10-11T15:12:50.506Z,991.432
2022-10-11T15:14:50.769Z,991.473
2022-10-11T15:16:50.108Z,991.426
2022-10-11T15:18:50.121Z,991.471
2022-10-11T15:20:50.135Z,991.447
2022-10-11T15:22:50.255Z,991.464
2022-10-11T15:24:52.118Z,991.461
2022-10-11T15:26:50.535Z,991.442
2022-10-11T15:28:50.556Z,991.467
2022-10-11T15:30:49.978Z,991.491
2022-10-11T15:32:50.249Z,991.491
2022-10-11T15:34:49.914Z,991.498
2022-10-11T15:36:50.436Z,991.505
2022-10-11T15:38:50.356Z,991.483
2022-10-11T15:40:50.549Z,991.481
2022-10-11T15:42:50.649Z,991.493
2022-10-11T15:44:50.727Z,991.539
2022-10-11T15:46:50.367Z,991.477
2022-10-11T15:48:50.597Z,991.507
2022-10-11T15:50:50.678Z,991.497
2022-10-11T15:52:49.808Z,991.528
2022-10-11T15:54:49.999Z,991.511
2022-10-11T15:56:50.334Z,991.525
2022-10-11T15:58:50.305Z,991.484
2022-10-11T16:00:50.527Z,991.508
2022-10-11T16:02:50.521Z,991.495
2022-10-11T16:04:50.363Z,991.491
2022-10-11T16:06:50.581Z,991.484
2022-10-11T16:08:49.803Z,991.490
2022-10-11T16:10:50.754Z,991.490
2022-10-11T16:12:49.925Z,991.552
2022-10-11T16:14:50.271Z,991.557
2022-10-11T16:16:50.630Z,991.574
2022-10-11T16:18:50.557Z,991.551
2022-10-11T16:20:50.683Z,991.552
2022-10-11T16:22:49.861Z,991.571
2022-10-11T16:24:49.915Z,991.559
2022-10-11T16:26:50.413Z,991.606
2022-10-11T16:28:50.763Z,991.608
2022-10-11T16:30:50.282Z,991.633
2022-10-11T16:32:50.478Z,991.633
2022-10-11T16:34:49.960Z,991.644
2022-10-11T16:36:50.277Z,991.644
2022-10-11T16:38:50.401Z,991.647
2022-10-11T16:40:50.652Z,991.663
2022-10-11T16:42:50.803Z,991.680
2022-10-11T16:44:50.724Z,991.705
2022-10-11T16:46:50.130Z,991.690
2022-10-11T16:48:50.276Z,991.675
2022-10-11T16:50:50.241Z,991.680
2022-10-11T16:52:50.290Z,991.718
2022-10-11T16:54:50.431Z,991.693
2022-10-11T16:56:50.144Z,991.696
2022-10-11T16:58:50.307Z,991.729
2022-10-11T17:00:50.499Z,991.707
2022-10-11T17:02:49.874Z,991.675
2022-10-11T17:04:50.449Z,991.752
2022-10-11T17:06:50.136Z,991.722
2022-10-11T17:08:50.055Z,991.736
2022-10-11T17:10:50.115Z,991.762
2022-10-11T17:12:50.582Z,991.728
2022-10-11T17:14:50.685Z,991.767
2022-10-11T17:16:50.171Z,991.761
2022-10-11T17:18:50.216Z,991.739
2022-10-11T17:20:50.281Z,991.762
2022-10-11T17:22:50.437Z,991.752
2022-10-11T17:24:50.514Z,991.748
2022-10-11T17:26:49.972Z,991.758
2022-10-11T17:28:50.330Z,991.760
2022-10-11T17:30:50.513Z,991.836
2022-10-11T17:32:50.639Z,991.797
2022-10-11T17:34:50.266Z,991.809
2022-10-11T17:36:50.805Z,991.776
2022-10-11T17:38:49.861Z,991.774
2022-10-11T17:40:50.229Z,991.764
2022-10-11T17:42:50.241Z,991.802
2022-10-11T17:44:50.253Z,991.797
2022-10-11T17:46:50.761Z,991.814
2022-10-11T17:48:50.788Z,991.799
2022-10-11T17:50:51.173Z,991.784
2022-10-11T17:52:50.424Z,991.785
2022-10-11T17:54:50.518Z,991.782
2022-10-11T17:56:49.945Z,991.793
2022-10-11T17:58:50.224Z,991.801
2022-10-11T18:00:50.609Z,991.798
2022-10-11T18:02:51.428Z,991.812
2022-10-11T18:04:49.941Z,991.798
2022-10-11T18:06:50.346Z,991.811
2022-10-11T18:08:50.345Z,991.765
2022-10-11T18:10:50.580Z,991.806
2022-10-11T18:12:50.716Z,991.769
2022-10-11T18:14:50.753Z,991.779
2022-10-11T18:16:50.290Z,991.770
2022-10-11T18:18:50.284Z,991.774
2022-10-11T18:20:50.254Z,991.774
2022-10-11T18:22:50.374Z,991.715
2022-10-11T18:24:50.617Z,991.699
2022-10-11T18:26:49.974Z,991.739
2022-10-11T18:28:50.362Z,991.738
2022-10-11T18:30:50.725Z,991.765
2022-10-11T18:32:50.656Z,991.710
2022-10-11T18:34:50.185Z,991.745
2022-10-11T18:36:50.485Z,991.741
2022-10-11T18:38:50.431Z,991.746
2022-10-11T18:40:50.492Z,991.773
2022-10-11T18:42:50.725Z,991.779
2022-10-11T18:44:50.806Z,991.820
2022-10-11T18:46:50.259Z,991.778
2022-10-11T18:48:50.442Z,991.806
2022-10-11T18:50:50.522Z,991.789
2022-10-11T18:52:50.650Z,991.789
2022-10-11T18:54:50.595Z,991.801
2022-10-11T18:56:50.026Z,991.804
2022-10-11T18:58:50.424Z,991.781
2022-10-11T19:00:50.776Z,991.805
2022-10-11T19:02:50.171Z,991.815
2022-10-11T19:04:50.856Z,991.806
2022-10-11T19:06:50.207Z,991.832
2022-10-11T19:08:50.484Z,991.812
2022-10-11T19:10:50.601Z,991.791
2022-10-11T19:12:50.567Z,991.769
2022-10-11T19:14:50.698Z,991.767
2022-10-11T19:16:50.316Z,991.788
2022-10-11T19:18:50.491Z,991.762
2022-10-11T19:20:50.530Z,991.734
2022-10-11T19:22:50.653Z,991.714
2022-10-11T19:24:50.861Z,991.690
2022-10-11T19:26:50.657Z,991.676
2022-10-11T19:28:50.316Z,991.703
2022-10-11T19:30:50.628Z,991.695
2022-10-11T19:32:50.008Z,991.670
2022-10-11T19:34:50.702Z,991.708
2022-10-11T19:36:50.199Z,991.735
2022-10-11T19:38:50.529Z,991.716
2022-10-11T19:40:50.726Z,991.731
2022-10-11T19:42:50.624Z,991.726
2022-10-11T19:44:50.758Z,991.741
2022-10-11T19:46:53.555Z,991.777
2022-10-11T19:48:50.711Z,991.806
2022-10-11T19:50:50.092Z,991.802
2022-10-11T19:52:50.016Z,991.820
2022-10-11T19:54:50.055Z,991.835
2022-10-11T19:56:50.442Z,991.824
2022-10-11T19:58:50.647Z,991.827
2022-10-11T20:00:50.498Z,991.807
2022-10-11T20:02:50.091Z,991.797
2022-10-11T20:04:53.609Z,991.806
2022-10-11T20:06:50.405Z,991.789
2022-10-11T20:09:28.327Z,991.750
2022-10-11T20:10:49.830Z,991.781
2022-10-11T20:12:49.869Z,991.739
2022-10-11T20:14:50.750Z,991.757
2022-10-11T20:16:50.535Z,991.782
2022-10-11T20:18:50.803Z,991.784
2022-10-11T20:20:49.870Z,991.788
2022-10-11T20:22:49.965Z,991.775
2022-10-11T20:24:49.988Z,991.763
2022-10-11T20:26:50.504Z,991.757
2022-10-11T20:28:56.497Z,991.766
2022-10-11T20:30:50.641Z,991.808
2022-10-11T20:32:50.604Z,991.808
2022-10-11T20:34:50.206Z,991.855
2022-10-11T20:36:50.605Z,991.853
2022-10-11T20:38:50.596Z,991.853
2022-10-11T20:40:50.626Z,991.867
2022-10-11T20:42:50.770Z,991.867
2022-10-11T20:44:50.777Z,991.901
2022-10-11T20:46:50.379Z,991.944
2022-10-11T20:48:50.458Z,991.935
2022-10-11T20:50:50.547Z,991.939
2022-10-11T20:52:50.643Z,991.966
2022-10-11T20:54:50.675Z,992.007
2022-10-11T20:56:50.196Z,992.026
2022-10-11T20:58:50.306Z,992.074
2022-10-11T21:00:50.216Z,992.032
2022-10-11T21:02:50.231Z,992.030
2022-10-11T21:04:49.858Z,992.000
2022-10-11T21:06:50.199Z,991.996
2022-10-11T21:08:50.209Z,991.944
2022-10-11T21:10:50.334Z,991.969
2022-10-11T21:12:50.397Z,991.981
2022-10-11T21:14:50.542Z,991.973
2022-10-11T21:16:50.090Z,991.972
2022-10-11T21:18:49.965Z,991.972
2022-10-11T21:20:49.915Z,991.973
2022-10-11T21:22:50.009Z,991.954
2022-10-11T21:24:49.986Z,991.970
2022-10-11T21:26:50.623Z,991.900
2022-10-11T21:28:50.897Z,991.941
2022-10-11T21:30:49.969Z,991.861
2022-10-11T21:32:50.098Z,991.844
2022-10-11T21:34:49.965Z,991.841
2022-10-11T21:36:50.435Z,991.862
2022-10-11T21:38:50.734Z,991.852
2022-10-11T21:40:50.653Z,991.848
2022-10-11T21:42:50.534Z,991.822
2022-10-11T21:44:50.706Z,991.810
2022-10-11T21:47:07.910Z,991.780
2022-10-11T21:48:49.836Z,991.848
2022-10-11T21:50:49.898Z,991.833
2022-10-11T21:52:49.986Z,991.855
2022-10-11T21:54:50.168Z,991.838
2022-10-11T21:56:50.611Z,991.859
2022-10-11T21:58:50.437Z,991.868
2022-10-11T22:00:50.574Z,991.914
2022-10-11T22:02:50.665Z,991.920
2022-10-11T22:04:50.267Z,991.915
2022-10-11T22:06:50.708Z,991.895
2022-10-11T22:08:50.769Z,991.887
2022-10-11T22:10:49.829Z,991.868
2022-10-11T22:12:49.899Z,991.838
2022-10-11T22:14:50.202Z,991.809
2022-10-11T22:16:50.709Z,991.821
2022-10-11T22:18:49.780Z,991.811
2022-10-11T22:20:49.935Z,991.806
2022-10-11T22:22:49.912Z,991.819
2022-10-11T22:24:50.063Z,991.762
2022-10-11T22:26:50.571Z,991.763
2022-10-11T22:28:50.793Z,991.727
2022-10-11T22:30:50.254Z,991.727
2022-10-11T22:32:50.419Z,991.781
2022-10-11T22:34:50.050Z,991.759
2022-10-11T22:36:50.541Z,991.732
2022-10-11T22:38:50.532Z,991.757
2022-10-11T22:40:50.502Z,991.727
2022-10-11T22:42:50.509Z,991.739
2022-10-11T22:44:50.660Z,991.741
2022-10-11T22:46:49.941Z,991.727
2022-10-11T22:48:49.988Z,991.724
2022-10-11T22:50:50.023Z,991.766
2022-10-11T22:52:49.949Z,991.773
2022-10-11T22:54:50.174Z,991.779
2022-10-11T22:56:50.501Z,991.759
2022-10-11T22:58:50.690Z,991.715
2022-10-11T23:00:49.809Z,991.722
2022-10-11T23:02:49.917Z,991.758
2022-10-11T23:04:50.363Z,991.814
2022-10-11T23:06:50.582Z,991.838
2022-10-11T23:08:50.675Z,991.902
2022-10-11T23:10:50.753Z,991.874
2022-10-11T23:12:50.798Z,991.881
2022-10-11T23:14:49.910Z,991.864
2022-10-11T23:16:50.301Z,991.840
2022-10-11T23:18:50.412Z,991.831
2022-10-11T23:20:50.623Z,991.807
2022-10-11T23:22:50.505Z,991.800
2022-10-11T23:24:50.690Z,991.772
2022-10-11T23:26:50.363Z,991.774
2022-10-11T23:28:50.629Z,991.777
2022-10-11T23:30:49.834Z,991.851
2022-10-11T23:32:50.108Z,991.855
2022-10-11T23:34:50.795Z,991.884
2022-10-11T23:36:50.246Z,991.867
2022-10-11T23:38:50.350Z,991.830
2022-10-11T23:40:50.317Z,991.821
2022-10-11T23:42:50.483Z,991.821
2022-10-11T23:44:50.472Z,991.801
2022-10-11T23:46:50.041Z,991.791
2022-10-11T23:48:50.104Z,991.798
2022-10-11T23:50:50.164Z,991.822
2022-10-11T23:52:50.098Z,991.774
2022-10-11T23:54:50.389Z,991.787
2022-10-11T23:56:49.879Z,991.747
2022-10-11T23:58:49.860Z,991.755
